sensor_id;sensor_type;location;lat;lon;timestamp;pressure;altitude;pressure_sealevel;temperature;humidity
29549;BME280;16487;53.094;8.800;2023-05-01T00:01:33;101626.72;;;8.20;100.00
29549;BME280;16487;53.094;8.800;2023-05-01T00:04:00;101633.13;;;8.06;100.00
29549;BME280;16487;53.094;8.800;2023-05-01T00:06:28;101627.50;;;8.20;100.00
29549;BME280;16487;53.094;8.800;2023-05-01T00:08:55;101620.34;;;8.19;100.00
29549;BME280;16487;53.094;8.800;2023-05-01T00:11:24;101619.19;;;8.20;100.00
29549;BME280;16487;53.094;8.800;2023-05-01T00:13:51;101620.47;;;8.01;100.00
29549;BME280;16487;53.094;8.800;2023-05-01T00:16:18;101606.50;;;8.15;100.00
29549;BME280;16487;53.094;8.800;2023-05-01T00:18:46;101599.47;;;7.93;100.00
29549;BME280;16487;53.094;8.800;2023-05-01T00:21:13;101591.97;;;7.94;100.00
29549;BME280;16487;53.094;8.800;2023-05-01T00:23:40;101596.72;;;7.93;100.00
29549;BME280;16487;53.094;8.800;2023-05-01T00:26:07;101590.41;;;7.86;100.00
29549;BME280;16487;53.094;8.800;2023-05-01T00:28:36;101564.19;;;7.97;100.00
29549;BME280;16487;53.094;8.800;2023-05-01T00:31:04;101576.94;;;7.81;100.00
29549;BME280;16487;53.094;8.800;2023-05-01T00:33:31;101567.47;;;7.78;100.00
29549;BME280;16487;53.094;8.800;2023-05-01T00:35:58;101572.56;;;7.87;100.00
29549;BME280;16487;53.094;8.800;2023-05-01T00:38:26;101564.59;;;7.96;100.00
29549;BME280;16487;53.094;8.800;2023-05-01T00:40:53;101566.69;;;7.71;100.00
29549;BME280;16487;53.094;8.800;2023-05-01T00:43:20;101565.56;;;7.61;100.00
29549;BME280;16487;53.094;8.800;2023-05-01T00:45:49;101543.72;;;7.70;100.00
29549;BME280;16487;53.094;8.800;2023-05-01T00:48:17;101531.44;;;7.68;100.00
29549;BME280;16487;53.094;8.800;2023-05-01T00:50:45;101527.53;;;7.62;100.00
29549;BME280;16487;53.094;8.800;2023-05-01T00:53:13;101535.06;;;7.58;100.00
29549;BME280;16487;53.094;8.800;2023-05-01T00:55:41;101512.09;;;7.54;100.00
29549;BME280;16487;53.094;8.800;2023-05-01T00:58:09;101494.22;;;7.62;100.00
29549;BME280;16487;53.094;8.800;2023-05-01T01:00:37;101485.09;;;7.65;100.00
29549;BME280;16487;53.094;8.800;2023-05-01T01:03:05;101508.91;;;7.55;100.00
29549;BME280;16487;53.094;8.800;2023-05-01T01:05:37;101522.41;;;7.50;100.00
29549;BME280;16487;53.094;8.800;2023-05-01T01:08:13;101499.03;;;7.51;100.00
29549;BME280;16487;53.094;8.800;2023-05-01T01:10:46;101493.09;;;7.52;100.00
29549;BME280;16487;53.094;8.800;2023-05-01T01:13:25;101497.06;;;7.51;100.00
29549;BME280;16487;53.094;8.800;2023-05-01T01:16:00;101490.72;;;7.47;100.00
29549;BME280;16487;53.094;8.800;2023-05-01T01:18:35;101488.38;;;7.46;100.00
29549;BME280;16487;53.094;8.800;2023-05-01T01:21:07;101485.22;;;7.37;100.00
29549;BME280;16487;53.094;8.800;2023-05-01T01:24:02;101472.53;;;7.46;100.00
29549;BME280;16487;53.094;8.800;2023-05-01T01:27:04;101478.06;;;7.46;100.00
29549;BME280;16487;53.094;8.800;2023-05-01T01:29:54;101487.63;;;7.28;100.00
29549;BME280;16487;53.094;8.800;2023-05-01T01:32:38;101467.06;;;7.29;100.00
29549;BME280;16487;53.094;8.800;2023-05-01T01:35:18;101463.78;;;7.51;100.00
29549;BME280;16487;53.094;8.800;2023-05-01T01:37:50;101473.72;;;7.38;100.00
29549;BME280;16487;53.094;8.800;2023-05-01T01:40:23;101484.41;;;7.40;100.00
29549;BME280;16487;53.094;8.800;2023-05-01T01:42:55;101469.31;;;7.55;100.00
29549;BME280;16487;53.094;8.800;2023-05-01T01:45:29;101493.56;;;7.37;100.00
29549;BME280;16487;53.094;8.800;2023-05-01T01:48:02;101494.72;;;7.43;100.00
29549;BME280;16487;53.094;8.800;2023-05-01T01:50:32;101494.78;;;7.29;100.00
29549;BME280;16487;53.094;8.800;2023-05-01T01:53:03;101496.34;;;7.30;100.00
29549;BME280;16487;53.094;8.800;2023-05-01T01:55:33;101515.41;;;7.10;100.00
29549;BME280;16487;53.094;8.800;2023-05-01T01:58:02;101498.03;;;7.10;100.00
29549;BME280;16487;53.094;8.800;2023-05-01T02:00:32;101498.03;;;7.10;100.00
29549;BME280;16487;53.094;8.800;2023-05-01T02:03:01;101491.63;;;7.23;100.00
29549;BME280;16487;53.094;8.800;2023-05-01T02:05:32;101496.34;;;7.30;100.00
29549;BME280;16487;53.094;8.800;2023-05-01T02:08:01;101508.66;;;7.22;100.00
29549;BME280;16487;53.094;8.800;2023-05-01T02:10:29;101515.41;;;7.14;100.00
29549;BME280;16487;53.094;8.800;2023-05-01T02:12:59;101520.97;;;7.07;100.00
29549;BME280;16487;53.094;8.800;2023-05-01T02:15:28;101534.06;;;7.06;100.00
29549;BME280;16487;53.094;8.800;2023-05-01T02:17:57;101562.19;;;6.97;100.00
29549;BME280;16487;53.094;8.800;2023-05-01T02:20:26;101561.34;;;7.22;100.00
29549;BME280;16487;53.094;8.800;2023-05-01T02:22:56;101558.19;;;7.13;100.00
29549;BME280;16487;53.094;8.800;2023-05-01T02:25:26;101587.47;;;7.14;100.00
29549;BME280;16487;53.094;8.800;2023-05-01T02:27:59;101586.72;;;7.13;100.00
29549;BME280;16487;53.094;8.800;2023-05-01T02:30:28;101605.72;;;7.08;100.00
29549;BME280;16487;53.094;8.800;2023-05-01T02:32:55;101598.56;;;7.07;100.00
29549;BME280;16487;53.094;8.800;2023-05-01T02:35:22;101596.63;;;6.96;100.00
29549;BME280;16487;53.094;8.800;2023-05-01T02:37:50;101580.38;;;7.02;100.00
29549;BME280;16487;53.094;8.800;2023-05-01T02:40:19;101584.38;;;6.97;100.00
29549;BME280;16487;53.094;8.800;2023-05-01T02:42:47;101583.97;;;7.03;100.00
29549;BME280;16487;53.094;8.800;2023-05-01T02:45:18;101588.31;;;6.96;100.00
29549;BME280;16487;53.094;8.800;2023-05-01T02:47:50;101595.44;;;7.01;100.00
29549;BME280;16487;53.094;8.800;2023-05-01T02:50:18;101602.53;;;7.09;100.00
29549;BME280;16487;53.094;8.800;2023-05-01T02:52:46;101598.59;;;7.03;100.00
29549;BME280;16487;53.094;8.800;2023-05-01T02:55:37;101585.50;;;7.11;100.00
29549;BME280;16487;53.094;8.800;2023-05-01T02:58:05;101591.06;;;6.96;100.00
29549;BME280;16487;53.094;8.800;2023-05-01T03:00:32;101594.66;;;7.01;100.00
29549;BME280;16487;53.094;8.800;2023-05-01T03:03:00;101590.66;;;7.12;100.00
29549;BME280;16487;53.094;8.800;2023-05-01T03:05:27;101615.19;;;7.14;100.00
29549;BME280;16487;53.094;8.800;2023-05-01T03:07:54;101590.66;;;7.02;100.00
29549;BME280;16487;53.094;8.800;2023-05-01T03:10:22;101600.59;;;7.03;100.00
29549;BME280;16487;53.094;8.800;2023-05-01T03:12:50;101598.22;;;7.05;100.00
29549;BME280;16487;53.094;8.800;2023-05-01T03:15:18;101603.34;;;6.99;100.00
29549;BME280;16487;53.094;8.800;2023-05-01T03:17:45;101606.94;;;6.89;100.00
29549;BME280;16487;53.094;8.800;2023-05-01T03:20:12;101598.59;;;6.99;100.00
29549;BME280;16487;53.094;8.800;2023-05-01T03:22:40;101596.22;;;6.91;100.00
29549;BME280;16487;53.094;8.800;2023-05-01T03:25:08;101599.41;;;6.86;100.00
29549;BME280;16487;53.094;8.800;2023-05-01T03:27:36;101593.84;;;6.86;100.00
29549;BME280;16487;53.094;8.800;2023-05-01T03:30:06;101606.53;;;6.76;100.00
29549;BME280;16487;53.094;8.800;2023-05-01T03:32:38;101588.72;;;6.77;100.00
29549;BME280;16487;53.094;8.800;2023-05-01T03:35:10;101578.03;;;6.86;100.00
29549;BME280;16487;53.094;8.800;2023-05-01T03:37:38;101573.28;;;6.80;100.00
29549;BME280;16487;53.094;8.800;2023-05-01T03:40:06;101571.69;;;6.82;100.00
29549;BME280;16487;53.094;8.800;2023-05-01T03:42:37;101582.00;;;6.85;100.00
29549;BME280;16487;53.094;8.800;2023-05-01T03:45:12;101576.47;;;6.89;100.00
29549;BME280;16487;53.094;8.800;2023-05-01T03:47:39;101569.31;;;6.88;100.00
29549;BME280;16487;53.094;8.800;2023-05-01T03:50:07;101574.88;;;6.77;100.00
29549;BME280;16487;53.094;8.800;2023-05-01T03:52:37;101572.50;;;6.79;100.00
29549;BME280;16487;53.094;8.800;2023-05-01T03:55:06;101567.75;;;6.76;100.00
29549;BME280;16487;53.094;8.800;2023-05-01T03:57:40;101551.53;;;6.64;100.00
29549;BME280;16487;53.094;8.800;2023-05-01T04:00:09;101548.75;;;6.82;100.00
29549;BME280;16487;53.094;8.800;2023-05-01T04:02:45;101555.06;;;6.75;100.00
29549;BME280;16487;53.094;8.800;2023-05-01T04:05:17;101553.50;;;6.74;100.00
29549;BME280;16487;53.094;8.800;2023-05-01T04:07:50;101549.53;;;6.72;100.00
29549;BME280;16487;53.094;8.800;2023-05-01T04:10:17;101547.56;;;6.72;100.00
29549;BME280;16487;53.094;8.800;2023-05-01T04:12:58;101540.06;;;6.69;100.00
29549;BME280;16487;53.094;8.800;2023-05-01T04:15:25;101542.44;;;6.67;100.00
29549;BME280;16487;53.094;8.800;2023-05-01T04:17:54;101537.69;;;6.71;100.00
29549;BME280;16487;53.094;8.800;2023-05-01T04:20:22;101556.69;;;6.80;100.00
29549;BME280;16487;53.094;8.800;2023-05-01T04:22:49;101547.97;;;6.81;100.00
29549;BME280;16487;53.094;8.800;2023-05-01T04:25:17;101570.13;;;6.78;100.00
29549;BME280;16487;53.094;8.800;2023-05-01T04:27:46;101569.72;;;6.86;100.00
29549;BME280;16487;53.094;8.800;2023-05-01T04:30:14;101568.91;;;6.86;100.00
29549;BME280;16487;53.094;8.800;2023-05-01T04:32:42;101562.19;;;6.97;100.00
29549;BME280;16487;53.094;8.800;2023-05-01T04:35:11;101581.19;;;6.95;100.00
29549;BME280;16487;53.094;8.800;2023-05-01T04:37:42;101572.47;;;6.93;100.00
29549;BME280;16487;53.094;8.800;2023-05-01T04:40:10;101567.75;;;6.97;100.00
29549;BME280;16487;53.094;8.800;2023-05-01T04:42:39;101574.03;;;7.05;100.00
29549;BME280;16487;53.094;8.800;2023-05-01T04:45:10;101562.97;;;6.98;100.00
29549;BME280;16487;53.094;8.800;2023-05-01T04:47:37;101577.22;;;6.96;100.00
29549;BME280;16487;53.094;8.800;2023-05-01T04:50:05;101574.44;;;7.00;100.00
29549;BME280;16487;53.094;8.800;2023-05-01T04:52:35;101575.66;;;7.03;100.00
29549;BME280;16487;53.094;8.800;2023-05-01T04:55:03;101583.53;;;7.08;100.00
29549;BME280;16487;53.094;8.800;2023-05-01T04:57:34;101572.44;;;7.25;100.00
29549;BME280;16487;53.094;8.800;2023-05-01T05:00:06;101581.91;;;7.28;100.00
29549;BME280;16487;53.094;8.800;2023-05-01T05:02:38;101594.97;;;7.31;100.00
29549;BME280;16487;53.094;8.800;2023-05-01T05:05:06;101590.63;;;7.26;100.00
29549;BME280;16487;53.094;8.800;2023-05-01T05:07:35;101598.53;;;7.31;100.00
29549;BME280;16487;53.094;8.800;2023-05-01T05:10:27;101608.03;;;7.34;100.00
29549;BME280;16487;53.094;8.800;2023-05-01T05:13:10;101606.03;;;7.41;100.00
29549;BME280;16487;53.094;8.800;2023-05-01T05:15:38;101614.34;;;7.45;100.00
29549;BME280;16487;53.094;8.800;2023-05-01T05:18:08;101623.44;;;7.52;100.00
29549;BME280;16487;53.094;8.800;2023-05-01T05:20:37;101618.69;;;7.53;100.00
29549;BME280;16487;53.094;8.800;2023-05-01T05:23:06;101624.97;;;7.64;100.00
29549;BME280;16487;53.094;8.800;2023-05-01T05:25:34;101634.47;;;7.70;100.00
29549;BME280;16487;53.094;8.800;2023-05-01T05:28:02;101649.16;;;7.74;100.00
29549;BME280;16487;53.094;8.800;2023-05-01T05:30:29;101639.19;;;7.80;100.00
29549;BME280;16487;53.094;8.800;2023-05-01T05:32:57;101652.22;;;7.90;100.00
29549;BME280;16487;53.094;8.800;2023-05-01T05:35:25;101658.97;;;7.96;100.00
29549;BME280;16487;53.094;8.800;2023-05-01T05:37:52;101669.63;;;8.08;100.00
29549;BME280;16487;53.094;8.800;2023-05-01T05:40:21;101671.94;;;8.17;100.00
29549;BME280;16487;53.094;8.800;2023-05-01T05:42:54;101683.84;;;8.28;100.00
29549;BME280;16487;53.094;8.800;2023-05-01T05:45:21;101684.16;;;8.40;100.00
29549;BME280;16487;53.094;8.800;2023-05-01T05:47:49;101688.47;;;8.52;100.00
29549;BME280;16487;53.094;8.800;2023-05-01T05:50:17;101694.00;;;8.55;100.00
29549;BME280;16487;53.094;8.800;2023-05-01T05:52:45;101696.63;;;8.73;100.00
29549;BME280;16487;53.094;8.800;2023-05-01T05:55:13;101707.69;;;8.83;100.00
29549;BME280;16487;53.094;8.800;2023-05-01T05:57:48;101710.34;;;9.01;100.00
29549;BME280;16487;53.094;8.800;2023-05-01T06:00:16;101718.59;;;9.11;100.00
29549;BME280;16487;53.094;8.800;2023-05-01T06:02:48;101722.16;;;9.15;100.00
29549;BME280;16487;53.094;8.800;2023-05-01T06:05:16;101722.91;;;9.19;100.00
29549;BME280;16487;53.094;8.800;2023-05-01T06:07:43;101726.06;;;9.21;100.00
29549;BME280;16487;53.094;8.800;2023-05-01T06:10:11;101727.16;;;9.35;100.00
29549;BME280;16487;53.094;8.800;2023-05-01T06:12:39;101725.53;;;9.37;100.00
29549;BME280;16487;53.094;8.800;2023-05-01T06:15:14;101731.47;;;9.39;100.00
29549;BME280;16487;53.094;8.800;2023-05-01T06:17:43;101733.84;;;9.41;100.00
29549;BME280;16487;53.094;8.800;2023-05-01T06:20:11;101731.34;;;9.53;100.00
29549;BME280;16487;53.094;8.800;2023-05-01T06:22:39;101733.66;;;9.62;100.00
29549;BME280;16487;53.094;8.800;2023-05-01T06:25:20;101735.16;;;9.70;100.00
29549;BME280;16487;53.094;8.800;2023-05-01T06:27:48;101743.81;;;9.79;100.00
29549;BME280;16487;53.094;8.800;2023-05-01T06:30:18;101751.69;;;9.87;100.00
29549;BME280;16487;53.094;8.800;2023-05-01T06:32:46;101751.13;;;10.03;100.00
29549;BME280;16487;53.094;8.800;2023-05-01T06:35:14;101758.16;;;10.18;100.00
29549;BME280;16487;53.094;8.800;2023-05-01T06:37:41;101755.94;;;10.36;100.00
29549;BME280;16487;53.094;8.800;2023-05-01T06:40:10;101754.38;;;10.35;100.00
29549;BME280;16487;53.094;8.800;2023-05-01T06:42:38;101755.75;;;10.50;100.00
29549;BME280;16487;53.094;8.800;2023-05-01T06:45:06;101759.66;;;10.56;100.00
29549;BME280;16487;53.094;8.800;2023-05-01T06:47:35;101751.66;;;10.58;100.00
29549;BME280;16487;53.094;8.800;2023-05-01T06:50:03;101749.94;;;10.68;100.00
29549;BME280;16487;53.094;8.800;2023-05-01T06:52:32;101752.22;;;10.76;100.00
29549;BME280;16487;53.094;8.800;2023-05-01T06:55:00;101746.31;;;10.71;100.00
29549;BME280;16487;53.094;8.800;2023-05-01T06:57:27;101747.38;;;10.80;100.00
29549;BME280;16487;53.094;8.800;2023-05-01T06:59:54;101735.06;;;11.04;100.00
29549;BME280;16487;53.094;8.800;2023-05-01T07:02:22;101743.44;;;11.04;100.00
29549;BME280;16487;53.094;8.800;2023-05-01T07:04:51;101745.22;;;11.18;100.00
29549;BME280;16487;53.094;8.800;2023-05-01T07:07:18;101736.41;;;11.19;100.00
29549;BME280;16487;53.094;8.800;2023-05-01T07:09:46;101735.63;;;11.42;100.00
29549;BME280;16487;53.094;8.800;2023-05-01T07:12:13;101735.38;;;11.56;100.00
29549;BME280;16487;53.094;8.800;2023-05-01T07:14:40;101730.66;;;11.53;100.00
29549;BME280;16487;53.094;8.800;2023-05-01T07:17:08;101730.19;;;11.58;100.00
29549;BME280;16487;53.094;8.800;2023-05-01T07:19:35;101725.47;;;11.98;100.00
29549;BME280;16487;53.094;8.800;2023-05-01T07:22:04;101724.00;;;11.90;100.00
29549;BME280;16487;53.094;8.800;2023-05-01T07:24:31;101722.91;;;12.07;100.00
29549;BME280;16487;53.094;8.800;2023-05-01T07:26:58;101721.72;;;11.85;100.00
29549;BME280;16487;53.094;8.800;2023-05-01T07:29:25;101716.13;;;11.85;100.00
29549;BME280;16487;53.094;8.800;2023-05-01T07:31:53;101720.72;;;11.95;100.00
29549;BME280;16487;53.094;8.800;2023-05-01T07:34:20;101726.22;;;11.98;100.00
29549;BME280;16487;53.094;8.800;2023-05-01T07:36:48;101718.38;;;12.13;100.00
29549;BME280;16487;53.094;8.800;2023-05-01T07:39:17;101716.81;;;12.12;100.00
29549;BME280;16487;53.094;8.800;2023-05-01T07:41:44;101712.78;;;12.32;100.00
29549;BME280;16487;53.094;8.800;2023-05-01T07:44:12;101710.59;;;12.40;100.00
29549;BME280;16487;53.094;8.800;2023-05-01T07:46:39;101705.78;;;12.60;100.00
29549;BME280;16487;53.094;8.800;2023-05-01T07:49:07;101713.56;;;12.68;100.00
29549;BME280;16487;53.094;8.800;2023-05-01T07:51:34;101706.69;;;12.89;100.00
29549;BME280;16487;53.094;8.800;2023-05-01T07:54:01;101705.72;;;12.96;100.00
29549;BME280;16487;53.094;8.800;2023-05-01T07:56:30;101697.78;;;12.94;100.00
29549;BME280;16487;53.094;8.800;2023-05-01T07:58:58;101701.13;;;13.21;100.00
29549;BME280;16487;53.094;8.800;2023-05-01T08:01:25;101698.56;;;13.59;100.00
29549;BME280;16487;53.094;8.800;2023-05-01T08:03:52;101680.59;;;13.72;100.00
29549;BME280;16487;53.094;8.800;2023-05-01T08:06:20;101683.47;;;13.98;100.00
29549;BME280;16487;53.094;8.800;2023-05-01T08:08:47;101678.78;;;14.07;100.00
29549;BME280;16487;53.094;8.800;2023-05-01T08:11:14;101675.53;;;14.09;100.00
29549;BME280;16487;53.094;8.800;2023-05-01T08:13:43;101673.97;;;14.08;100.00
29549;BME280;16487;53.094;8.800;2023-05-01T08:16:10;101674.34;;;14.22;100.00
29549;BME280;16487;53.094;8.800;2023-05-01T08:18:38;101667.81;;;14.25;100.00
29549;BME280;16487;53.094;8.800;2023-05-01T08:21:05;101663.75;;;14.55;100.00
29549;BME280;16487;53.094;8.800;2023-05-01T08:23:32;101676.56;;;14.56;100.00
29549;BME280;16487;53.094;8.800;2023-05-01T08:25:59;101675.53;;;14.50;100.00
29549;BME280;16487;53.094;8.800;2023-05-01T08:28:27;101663.41;;;14.40;100.00
29549;BME280;16487;53.094;8.800;2023-05-01T08:30:55;101671.38;;;14.67;100.00
29549;BME280;16487;53.094;8.800;2023-05-01T08:33:23;101663.53;;;14.87;100.00
29549;BME280;16487;53.094;8.800;2023-05-01T08:35:51;101661.81;;;14.89;100.00
29549;BME280;16487;53.094;8.800;2023-05-01T08:38:18;101664.28;;;15.13;100.00
29549;BME280;16487;53.094;8.800;2023-05-01T08:40:50;101668.22;;;15.03;100.00
29549;BME280;16487;53.094;8.800;2023-05-01T08:43:18;101666.28;;;15.12;100.00
29549;BME280;16487;53.094;8.800;2023-05-01T08:45:46;101664.50;;;15.18;100.00
29549;BME280;16487;53.094;8.800;2023-05-01T08:48:16;101658.88;;;15.18;100.00
29549;BME280;16487;53.094;8.800;2023-05-01T08:50:45;101659.09;;;15.24;100.00
29549;BME280;16487;53.094;8.800;2023-05-01T08:53:14;101642.72;;;15.56;100.00
29549;BME280;16487;53.094;8.800;2023-05-01T08:55:43;101647.75;;;15.61;100.00
29549;BME280;16487;53.094;8.800;2023-05-01T08:58:12;101636.84;;;15.63;100.00
29549;BME280;16487;53.094;8.800;2023-05-01T09:00:44;101635.59;;;15.64;100.00
29549;BME280;16487;53.094;8.800;2023-05-01T09:03:12;101632.41;;;15.75;100.00
29549;BME280;16487;53.094;8.800;2023-05-01T09:05:41;101625.22;;;15.74;100.00
29549;BME280;16487;53.094;8.800;2023-05-01T09:08:09;101621.13;;;16.18;100.00
29549;BME280;16487;53.094;8.800;2023-05-01T09:10:40;101610.84;;;16.55;100.00
29549;BME280;16487;53.094;8.800;2023-05-01T09:13:09;101609.00;;;16.30;100.00
29549;BME280;16487;53.094;8.800;2023-05-01T09:15:37;101607.78;;;16.71;100.00
29549;BME280;16487;53.094;8.800;2023-05-01T09:18:04;101602.53;;;16.21;100.00
29549;BME280;16487;53.094;8.800;2023-05-01T09:20:32;101615.06;;;15.98;100.00
29549;BME280;16487;53.094;8.800;2023-05-01T09:23:01;101611.94;;;16.27;100.00
29549;BME280;16487;53.094;8.800;2023-05-01T09:25:29;101620.50;;;15.92;100.00
29549;BME280;16487;53.094;8.800;2023-05-01T09:27:56;101616.81;;;16.35;100.00
29549;BME280;16487;53.094;8.800;2023-05-01T09:30:33;101621.69;;;16.65;100.00
29549;BME280;16487;53.094;8.800;2023-05-01T09:33:08;101615.91;;;16.69;100.00
29549;BME280;16487;53.094;8.800;2023-05-01T09:35:50;101612.19;;;16.81;100.00
29549;BME280;16487;53.094;8.800;2023-05-01T09:38:21;101616.81;;;17.24;100.00
29549;BME280;16487;53.094;8.800;2023-05-01T09:40:50;101602.91;;;17.47;100.00
29549;BME280;16487;53.094;8.800;2023-05-01T09:43:25;101596.09;;;18.50;100.00
29549;BME280;16487;53.094;8.800;2023-05-01T09:46:00;101592.16;;;18.89;100.00
29549;BME280;16487;53.094;8.800;2023-05-01T09:48:27;101577.78;;;19.92;100.00
29549;BME280;16487;53.094;8.800;2023-05-01T09:50:55;101573.66;;;20.52;100.00
29549;BME280;16487;53.094;8.800;2023-05-01T09:53:36;101561.47;;;20.02;100.00
29549;BME280;16487;53.094;8.800;2023-05-01T09:56:03;101568.38;;;19.57;100.00
29549;BME280;16487;53.094;8.800;2023-05-01T09:58:31;101571.81;;;19.23;100.00
29549;BME280;16487;53.094;8.800;2023-05-01T10:00:58;101556.31;;;20.00;100.00
29549;BME280;16487;53.094;8.800;2023-05-01T10:03:26;101559.78;;;19.52;100.00
29549;BME280;16487;53.094;8.800;2023-05-01T10:05:53;101558.22;;;19.36;100.00
29549;BME280;16487;53.094;8.800;2023-05-01T10:08:21;101565.38;;;19.46;100.00
29549;BME280;16487;53.094;8.800;2023-05-01T10:11:01;101556.91;;;19.75;100.00
29549;BME280;16487;53.094;8.800;2023-05-01T10:13:29;101547.72;;;20.09;100.00
29549;BME280;16487;53.094;8.800;2023-05-01T10:15:56;101557.78;;;19.67;100.00
29549;BME280;16487;53.094;8.800;2023-05-01T10:18:24;101550.16;;;19.73;100.00
29549;BME280;16487;53.094;8.800;2023-05-01T10:20:51;101537.22;;;20.79;100.00
29549;BME280;16487;53.094;8.800;2023-05-01T10:23:19;101538.84;;;20.66;100.00
29549;BME280;16487;53.094;8.800;2023-05-01T10:25:48;101542.69;;;20.48;100.00
29549;BME280;16487;53.094;8.800;2023-05-01T10:28:18;101547.22;;;19.67;100.00
29549;BME280;16487;53.094;8.800;2023-05-01T10:30:48;101525.06;;;20.09;100.00
29549;BME280;16487;53.094;8.800;2023-05-01T10:33:15;101549.66;;;19.30;100.00
29549;BME280;16487;53.094;8.800;2023-05-01T10:35:48;101545.28;;;19.44;100.00
29549;BME280;16487;53.094;8.800;2023-05-01T10:38:22;101544.28;;;20.05;100.00
29549;BME280;16487;53.094;8.800;2023-05-01T10:40:52;101529.38;;;20.19;100.00
29549;BME280;16487;53.094;8.800;2023-05-01T10:43:22;101532.09;;;20.83;100.00
29549;BME280;16487;53.094;8.800;2023-05-01T10:45:50;101517.69;;;21.47;100.00
29549;BME280;16487;53.094;8.800;2023-05-01T10:48:53;101507.78;;;21.88;100.00
29549;BME280;16487;53.094;8.800;2023-05-01T10:51:21;101459.84;;;22.38;100.00
29549;BME280;16487;53.094;8.800;2023-05-01T10:54:21;101485.75;;;21.52;100.00
29549;BME280;16487;53.094;8.800;2023-05-01T10:56:49;101487.13;;;21.62;100.00
29549;BME280;16487;53.094;8.800;2023-05-01T10:59:18;101475.63;;;21.71;100.00
29549;BME280;16487;53.094;8.800;2023-05-01T11:01:46;101468.13;;;21.99;100.00
29549;BME280;16487;53.094;8.800;2023-05-01T11:04:48;101467.44;;;21.79;100.00
29549;BME280;16487;53.094;8.800;2023-05-01T11:07:17;101444.28;;;22.76;100.00
29549;BME280;16487;53.094;8.800;2023-05-01T11:09:45;101428.22;;;23.75;100.00
29549;BME280;16487;53.094;8.800;2023-05-01T11:12:14;101421.53;;;24.63;100.00
29549;BME280;16487;53.094;8.800;2023-05-01T11:15:07;101419.06;;;24.27;100.00
29549;BME280;16487;53.094;8.800;2023-05-01T11:17:44;101418.25;;;24.43;100.00
29549;BME280;16487;53.094;8.800;2023-05-01T11:20:13;101405.16;;;24.01;100.00
29549;BME280;16487;53.094;8.800;2023-05-01T11:22:59;101424.56;;;23.69;100.00
29549;BME280;16487;53.094;8.800;2023-05-01T11:25:28;101419.28;;;24.40;100.00
29549;BME280;16487;53.094;8.800;2023-05-01T11:27:59;101412.44;;;24.76;100.00
29549;BME280;16487;53.094;8.800;2023-05-01T11:30:36;101416.63;;;24.64;100.00
29549;BME280;16487;53.094;8.800;2023-05-01T11:33:04;101409.28;;;24.00;100.00
29549;BME280;16487;53.094;8.800;2023-05-01T11:35:35;101405.91;;;24.13;100.00
29549;BME280;16487;53.094;8.800;2023-05-01T11:38:03;101395.66;;;24.50;100.00
29549;BME280;16487;53.094;8.800;2023-05-01T11:40:32;101391.19;;;25.18;100.00
29549;BME280;16487;53.094;8.800;2023-05-01T11:43:01;101373.81;;;25.51;100.00
29549;BME280;16487;53.094;8.800;2023-05-01T11:45:29;101392.78;;;24.56;100.00
29549;BME280;16487;53.094;8.800;2023-05-01T11:47:58;101375.59;;;25.19;100.00
29549;BME280;16487;53.094;8.800;2023-05-01T11:50:33;101378.28;;;25.06;100.00
29549;BME280;16487;53.094;8.800;2023-05-01T11:53:01;101356.56;;;25.62;100.00
29549;BME280;16487;53.094;8.800;2023-05-01T11:55:33;101370.25;;;25.04;100.00
29549;BME280;16487;53.094;8.800;2023-05-01T11:58:01;101378.25;;;24.65;100.00
29549;BME280;16487;53.094;8.800;2023-05-01T12:00:31;101367.13;;;24.61;100.00
29549;BME280;16487;53.094;8.800;2023-05-01T12:03:01;101364.31;;;25.37;100.00
29549;BME280;16487;53.094;8.800;2023-05-01T12:05:30;101341.44;;;26.39;100.00
29549;BME280;16487;53.094;8.800;2023-05-01T12:08:09;101379.19;;;24.21;100.00
29549;BME280;16487;53.094;8.800;2023-05-01T12:10:38;101381.81;;;23.97;100.00
29549;BME280;16487;53.094;8.800;2023-05-01T12:13:07;101359.50;;;25.21;100.00
29549;BME280;16487;53.094;8.800;2023-05-01T12:15:36;101342.16;;;26.45;100.00
29549;BME280;16487;53.094;8.800;2023-05-01T12:18:06;101339.34;;;26.21;100.00
29549;BME280;16487;53.094;8.800;2023-05-01T12:20:37;101350.63;;;25.84;100.00
29549;BME280;16487;53.094;8.800;2023-05-01T12:23:06;101348.22;;;25.93;100.00
29549;BME280;16487;53.094;8.800;2023-05-01T12:25:35;101331.34;;;26.75;100.00
29549;BME280;16487;53.094;8.800;2023-05-01T12:28:07;101353.53;;;25.54;100.00
29549;BME280;16487;53.094;8.800;2023-05-01T12:30:34;101365.59;;;25.01;100.00
29549;BME280;16487;53.094;8.800;2023-05-01T12:33:09;101367.78;;;24.32;100.00
29549;BME280;16487;53.094;8.800;2023-05-01T12:35:37;101364.53;;;23.84;100.00
29549;BME280;16487;53.094;8.800;2023-05-01T12:38:09;101358.09;;;25.04;100.00
29549;BME280;16487;53.094;8.800;2023-05-01T12:40:37;101326.41;;;25.66;100.00
29549;BME280;16487;53.094;8.800;2023-05-01T12:43:05;101316.03;;;26.54;100.00
29549;BME280;16487;53.094;8.800;2023-05-01T12:45:37;101321.84;;;25.82;100.00
29549;BME280;16487;53.094;8.800;2023-05-01T12:48:11;101334.88;;;25.18;100.00
29549;BME280;16487;53.094;8.800;2023-05-01T12:50:39;101309.13;;;26.44;100.00
29549;BME280;16487;53.094;8.800;2023-05-01T12:53:07;101300.97;;;26.72;100.00
29549;BME280;16487;53.094;8.800;2023-05-01T12:55:42;101308.75;;;26.53;100.00
29549;BME280;16487;53.094;8.800;2023-05-01T12:58:10;101329.38;;;25.26;100.00
29549;BME280;16487;53.094;8.800;2023-05-01T13:00:44;101348.09;;;24.34;100.00